Arthmarg3 — FAB9378 — position and weather

sailwx.info

Track history (hours):
 
Tides and Currents Weather Stations Pressure Air Temp Water Temp Dewpoint Dewpoint Depression Visibility Wind Speed Wind Dir Waves Ship Positions

Arthmarg3

Last reported at 2017-Sep-17 16:39 UTC. Time now 2017-Sep-25 19:07 UTC.
Position N 47°33' W 002°54'.
Warning: this ship's position is 8 days out of date.

Length 10 m.

Type: Sailing vessel. MMSI: 227254250.

Date/timePositionNaut miles runAvg speedWind from/ knotsBaromVisibWave heightAir tempDewpointWater temp
2017-Sep-17 16:39N 47°33' W 002°54'0 0.0
2017-Sep-17 16:30N 47°33' W 002°54'2 3.3
2017-Sep-17 16:01N 47°31' W 002°55'3 6.7
2017-Sep-17 15:30N 47°28' W 002°58'3 6.6
2017-Sep-17 15:00N 47°25' W 002°59'1 0.6
2017-Sep-17 13:52N 47°26' W 002°59'2 6.8
2017-Sep-17 13:30N 47°28' W 002°57'3 6.6
2017-Sep-17 13:01N 47°31' W 002°56'2 3.7
2017-Sep-17 12:30N 47°33' W 002°54'  
2017-Sep-10 15:36N 47°33' W 002°54'  
Track history (hours):
 
Tides and Currents Weather Stations Pressure Air Temp Water Temp Dewpoint Dewpoint Depression Visibility Wind Speed Wind Dir Waves Ship Positions

Arthmarg3

Last reported at 2017-Sep-17 16:39 UTC. Time now 2017-Sep-25 19:07 UTC.
Position N 47°33' W 002°54'.
Warning: this ship's position is 8 days out of date.

Length 10 m.

Type: Sailing vessel. MMSI: 227254250.

Date/timePositionNaut miles runAvg speedWind from/ knotsBaromVisibWave heightAir tempDewpointWater temp
2017-Sep-17 16:39N 47°33' W 002°54'0 0.0
2017-Sep-17 16:30N 47°33' W 002°54'2 3.3
2017-Sep-17 16:01N 47°31' W 002°55'3 6.7
2017-Sep-17 15:30N 47°28' W 002°58'3 6.6
2017-Sep-17 15:00N 47°25' W 002°59'1 0.6
2017-Sep-17 13:52N 47°26' W 002°59'2 6.8
2017-Sep-17 13:30N 47°28' W 002°57'3 6.6
2017-Sep-17 13:01N 47°31' W 002°56'2 3.7
2017-Sep-17 12:30N 47°33' W 002°54'  
2017-Sep-10 15:36N 47°33' W 002°54'  

Dump ship's entire track history